»·PEaware :: DFGCW 0S0-M94

DFGCW :: 0S0-M94

FLIGHT INFORMATION

Flight Status: Arrived
Operator: Unknown
More flights by this operator :: More flights under this callsign
Pilot: Klaus A. (15485)
Aircraft: DEHAVILLAND DH-2 TURBO BEAVER
(DH2T)
More flights by this aircraft type
Origin: 0S0 Lind
United States
Destination: M94 Desert Aire
United States
More flights between these airports :: More routes between these airports
Route: DCT
File this flight plan on PilotEdge
Remarks:
Altitude:
(Current/Filed)
6,500ft
Speed:
(Current/Filed)
120kts
Departed: 05-May-20 06:23 AM
Arrived: 05-May-20 06:56 AM
Distance/Time
Traveled:
57nm/0:33
Distance/Time
To Go:
Arrived

Flight Plot

Page will automatically refresh every two minutes.

Flight plan parsing failed; only flown route is shown


Map Options




Map Legend


Flown Route
Filed Route
Departure Airport
Arrival Airport
Navaid (VOR, NDB)
Fix

Horizontal Profiles

Position Reports

Time Latitude Longitude Heading Altitude Ground
Speed
05-May-20 05:56 46.974157 -118.590710 204 1511ft 2kts
05-May-20 05:57 46.974157 -118.590710 203 1511ft 0kts
05-May-20 05:58 46.974157 -118.590710 203 1511ft 0kts
05-May-20 05:59 46.974157 -118.590710 203 1511ft 0kts
05-May-20 06:00 46.974157 -118.590710 203 1511ft 0kts
05-May-20 06:01 46.974157 -118.590710 203 1511ft 0kts
05-May-20 06:02 46.974157 -118.590710 203 1511ft 0kts
05-May-20 06:03 46.974157 -118.590710 203 1511ft 0kts
05-May-20 06:04 46.974157 -118.590711 203 1511ft 0kts
05-May-20 06:05 46.974157 -118.590711 203 1511ft 0kts
05-May-20 06:06 46.974157 -118.590711 203 1511ft 0kts
05-May-20 06:07 46.974157 -118.590711 203 1511ft 0kts
05-May-20 06:08 46.974157 -118.590711 203 1511ft 0kts
05-May-20 06:10 46.974157 -118.590711 203 1511ft 0kts
05-May-20 06:11 46.974157 -118.590711 203 1511ft 0kts
05-May-20 06:12 46.974205 -118.591030 334 1511ft 9kts
05-May-20 06:13 46.974153 -118.590552 110 1511ft 6kts
05-May-20 06:14 46.975245 -118.590674 328 1511ft 0kts
05-May-20 06:15 46.976329 -118.588762 63 1511ft 17kts
05-May-20 06:16 46.978543 -118.581799 92 1511ft 8kts
05-May-20 06:17 46.978689 -118.581762 241 1511ft 0kts
05-May-20 06:18 46.978689 -118.581762 241 1511ft 0kts
05-May-20 06:19 46.978689 -118.581762 241 1511ft 0kts
05-May-20 06:20 46.978689 -118.581762 241 1511ft 0kts
05-May-20 06:21 46.978689 -118.581762 241 1511ft 0kts
05-May-20 06:22 46.978685 -118.581772 241 1511ft 0kts
05-May-20 06:23 46.972103 -118.599606 246 1839ft 83kts
05-May-20 06:24 46.955202 -118.621022 158 2670ft 92kts
05-May-20 06:25 46.944864 -118.646294 269 3455ft 89kts
05-May-20 06:25 46.942602 -118.676194 281 4139ft 87kts
05-May-20 06:27 46.943243 -118.724701 272 4590ft 118kts
05-May-20 06:28 46.923052 -118.762482 250 4537ft 128kts
05-May-20 06:28 46.913549 -118.802216 256 4541ft 129kts
05-May-20 06:30 46.903552 -118.860972 255 4433ft 123kts
05-May-20 06:30 46.895570 -118.900385 262 4491ft 119kts
05-May-20 06:31 46.889577 -118.948220 263 4553ft 118kts
05-May-20 06:32 46.882382 -118.995654 260 4607ft 120kts
05-May-20 06:33 46.876391 -119.043814 267 4634ft 120kts
05-May-20 06:34 46.868496 -119.092130 256 4609ft 123kts
05-May-20 06:35 46.857878 -119.139827 258 4615ft 123kts
05-May-20 06:36 46.848764 -119.187875 256 4618ft 123kts
05-May-20 06:37 46.840503 -119.236105 258 4621ft 122kts
05-May-20 06:38 46.829510 -119.284124 252 4579ft 125kts
05-May-20 06:39 46.816804 -119.331212 249 4560ft 125kts
05-May-20 06:40 46.805511 -119.378838 258 4542ft 123kts
05-May-20 06:41 46.796013 -119.427214 258 4521ft 124kts
05-May-20 06:42 46.786919 -119.475668 255 4507ft 124kts
05-May-20 06:43 46.775914 -119.523281 252 4496ft 124kts
05-May-20 06:44 46.765490 -119.571604 256 4492ft 124kts
05-May-20 06:45 46.754385 -119.619845 256 4499ft 125kts
05-May-20 06:46 46.739115 -119.666343 242 4484ft 127kts
05-May-20 06:47 46.729299 -119.714811 261 4364ft 121kts
05-May-20 06:48 46.722317 -119.762031 262 3705ft 117kts
05-May-20 06:49 46.711646 -119.807027 243 3020ft 112kts
05-May-20 06:50 46.702545 -119.846000 259 2229ft 95kts
05-May-20 06:51 46.697118 -119.882389 264 1623ft 94kts
05-May-20 06:52 46.703052 -119.914576 292 1275ft 78kts
05-May-20 06:53 46.707722 -119.943323 226 1157ft 75kts
05-May-20 06:54 46.692134 -119.934863 120 827ft 69kts
05-May-20 06:55 46.687688 -119.920454 22 590ft 8kts
05-May-20 06:56 46.687741 -119.920010 119 590ft 0kts
05-May-20 06:57 46.687741 -119.920010 119 590ft 0kts

Navigation Log

Ident Type
Flight plan parsing failed, navigation log unavailable